createdAt,value
2023-04-24T00:00:27.315Z,98571.31
2023-04-24T00:02:58.539Z,98571.19
2023-04-24T00:05:28.840Z,98570.34
2023-04-24T00:07:56.834Z,98570.00
2023-04-24T00:10:25.464Z,98562.47
2023-04-24T00:12:54.871Z,98569.28
2023-04-24T00:15:22.641Z,98563.94
2023-04-24T00:17:50.867Z,98549.69
2023-04-24T00:20:18.461Z,98555.44
2023-04-24T00:22:45.813Z,98560.81
2023-04-24T00:25:13.224Z,98563.59
2023-04-24T00:27:40.865Z,98556.69
2023-04-24T00:30:10.025Z,98557.44
2023-04-24T00:32:39.343Z,98564.88
2023-04-24T00:35:07.672Z,98561.03
2023-04-24T00:37:36.308Z,98561.56
2023-04-24T00:40:04.403Z,98556.31
2023-04-24T00:42:39.030Z,98547.66
2023-04-24T00:45:07.347Z,98548.63
2023-04-24T00:47:35.218Z,98545.22
2023-04-24T00:50:07.488Z,98549.91
2023-04-24T00:52:36.123Z,98545.81
2023-04-24T00:55:04.543Z,98536.88
2023-04-24T00:57:34.156Z,98544.34
2023-04-24T01:00:01.397Z,98540.84
2023-04-24T01:02:30.992Z,98547.50
2023-04-24T01:04:59.547Z,98537.00
2023-04-24T01:07:28.982Z,98537.44
2023-04-24T01:09:56.360Z,98537.91
2023-04-24T01:12:23.710Z,98530.44
2023-04-24T01:14:52.465Z,98536.25
2023-04-24T01:17:20.537Z,98535.25
2023-04-24T01:19:49.036Z,98529.72
2023-04-24T01:22:18.417Z,98529.59
2023-04-24T01:24:52.551Z,98525.66
2023-04-24T01:27:21.646Z,98522.78
2023-04-24T01:29:50.669Z,98518.06
2023-04-24T01:32:20.293Z,98519.88
2023-04-24T01:34:49.110Z,98520.25
2023-04-24T01:37:17.079Z,98516.56
2023-04-24T01:39:46.520Z,98509.06
2023-04-24T01:42:15.915Z,98517.78
2023-04-24T01:44:43.656Z,98511.63
2023-04-24T01:47:11.987Z,98506.69
2023-04-24T01:49:42.736Z,98506.97
2023-04-24T01:52:10.365Z,98503.59
2023-04-24T01:54:37.881Z,98503.38
2023-04-24T01:57:05.407Z,98501.25
2023-04-24T01:59:35.994Z,98501.34
2023-04-24T02:02:11.634Z,98500.66
2023-04-24T02:04:39.435Z,98495.56
2023-04-24T02:07:09.354Z,98494.31
2023-04-24T02:09:42.636Z,98485.63
2023-04-24T02:12:09.992Z,98491.88
2023-04-24T02:14:37.449Z,98485.31
2023-04-24T02:17:05.007Z,98487.97
2023-04-24T02:19:33.441Z,98483.09
2023-04-24T02:22:00.960Z,98485.75
2023-04-24T02:24:28.274Z,98475.81
2023-04-24T02:26:56.069Z,98475.81
2023-04-24T02:29:24.867Z,98464.22
2023-04-24T02:31:52.271Z,98464.22
2023-04-24T02:34:20.751Z,98465.41
2023-04-24T02:36:48.175Z,98463.59
2023-04-24T02:39:17.745Z,98466.09
2023-04-24T02:41:45.212Z,98454.53
2023-04-24T02:44:13.530Z,98463.50
2023-04-24T02:46:42.559Z,98458.41
2023-04-24T02:49:15.787Z,98455.13
2023-04-24T02:51:43.155Z,98458.22
2023-04-24T02:54:13.516Z,98455.47
2023-04-24T02:56:41.144Z,98453.44
2023-04-24T02:59:08.565Z,98455.88
2023-04-24T03:01:36.079Z,98471.81
2023-04-24T03:04:05.149Z,98466.16
2023-04-24T03:06:34.141Z,98470.72
2023-04-24T03:09:01.501Z,98462.75
2023-04-24T03:11:29.886Z,98470.72
2023-04-24T03:13:57.425Z,98466.94
2023-04-24T03:16:24.857Z,98461.78
2023-04-24T03:18:52.258Z,98457.44
2023-04-24T03:21:20.022Z,98473.84
2023-04-24T03:23:52.305Z,98476.72
2023-04-24T03:26:21.325Z,98466.59
2023-04-24T03:28:48.739Z,98471.63
2023-04-24T03:31:18.050Z,98471.63
2023-04-24T03:33:45.339Z,98468.00
2023-04-24T03:36:12.998Z,98462.63
2023-04-24T03:38:40.223Z,98466.16
2023-04-24T03:41:07.705Z,98467.44
2023-04-24T03:43:41.297Z,98462.88
2023-04-24T03:46:10.579Z,98470.84
2023-04-24T03:48:37.717Z,98459.69
2023-04-24T03:51:05.017Z,98467.66
2023-04-24T03:53:32.351Z,98471.50
2023-04-24T03:55:59.867Z,98472.47
2023-04-24T03:58:27.276Z,98476.31
2023-04-24T04:00:54.591Z,98467.28
2023-04-24T04:03:22.283Z,98467.63
2023-04-24T04:05:49.586Z,98474.28
2023-04-24T04:08:16.949Z,98474.16
2023-04-24T04:10:44.104Z,98471.84
2023-04-24T04:13:11.548Z,98470.66
2023-04-24T04:15:38.983Z,98466.31
2023-04-24T04:18:06.888Z,98468.47
2023-04-24T04:20:34.422Z,98470.88
2023-04-24T04:23:01.861Z,98476.31
2023-04-24T04:25:30.512Z,98476.94
2023-04-24T04:27:59.679Z,98480.44
2023-04-24T04:30:27.405Z,98478.34
2023-04-24T04:32:55.779Z,98469.19
2023-04-24T04:35:23.369Z,98470.44
2023-04-24T04:37:50.621Z,98485.53
2023-04-24T04:40:18.689Z,98478.41
2023-04-24T04:42:47.274Z,98479.03
2023-04-24T04:45:14.723Z,98471.06
2023-04-24T04:47:41.995Z,98478.28
2023-04-24T04:50:10.723Z,98480.22
2023-04-24T04:52:38.345Z,98473.09
2023-04-24T04:55:07.787Z,98480.44
2023-04-24T04:57:35.182Z,98479.59
2023-04-24T05:00:02.729Z,98476.38
2023-04-24T05:02:30.277Z,98475.88
2023-04-24T05:04:57.847Z,98473.94
2023-04-24T05:07:27.238Z,98475.97
2023-04-24T05:09:54.589Z,98471.28
2023-04-24T05:12:22.074Z,98477.84
2023-04-24T05:14:51.149Z,98484.63
2023-04-24T05:17:18.678Z,98486.09
2023-04-24T05:19:46.488Z,98477.16
2023-04-24T05:22:14.165Z,98478.56
2023-04-24T05:24:49.418Z,98480.16
2023-04-24T05:27:16.658Z,98478.63
2023-04-24T05:29:45.111Z,98483.50
2023-04-24T05:32:12.629Z,98484.97
2023-04-24T05:34:42.120Z,98477.50
2023-04-24T05:37:11.263Z,98480.91
2023-04-24T05:39:39.147Z,98473.22
2023-04-24T05:42:08.670Z,98478.53
2023-04-24T05:44:42.076Z,98476.59
2023-04-24T05:47:09.535Z,98476.63
2023-04-24T05:49:37.066Z,98483.63
2023-04-24T05:52:05.483Z,98482.22
2023-04-24T05:54:32.949Z,98481.84
2023-04-24T05:57:00.368Z,98475.91
2023-04-24T05:59:27.908Z,98480.03
2023-04-24T06:01:55.340Z,98477.91
2023-04-24T06:04:23.197Z,98476.81
2023-04-24T06:06:52.174Z,98479.53
2023-04-24T06:09:19.425Z,98480.28
2023-04-24T06:11:47.086Z,98485.00
2023-04-24T06:14:14.661Z,98478.47
2023-04-24T06:16:49.547Z,98470.72
2023-04-24T06:19:19.837Z,98471.94
2023-04-24T06:21:47.426Z,98478.22
2023-04-24T06:24:19.768Z,98475.81
2023-04-24T06:26:47.347Z,98470.63
2023-04-24T06:29:14.796Z,98478.25
2023-04-24T06:31:42.238Z,98475.22
2023-04-24T06:34:09.764Z,98477.03
2023-04-24T06:36:37.141Z,98461.78
2023-04-24T06:39:06.054Z,98472.31
2023-04-24T06:44:24.587Z,98472.19
2023-04-24T06:46:52.072Z,98464.66
2023-04-24T06:49:26.423Z,98461.28
2023-04-24T06:51:53.518Z,98463.41
2023-04-24T06:54:22.197Z,98469.94
2023-04-24T06:56:51.029Z,98462.06
2023-04-24T06:59:18.576Z,98471.25
2023-04-24T07:01:46.383Z,98463.66
2023-04-24T07:04:14.664Z,98461.66
2023-04-24T07:06:41.939Z,98457.47
2023-04-24T07:09:10.699Z,98466.84
2023-04-24T07:11:39.863Z,98461.66
2023-04-24T07:14:07.755Z,98456.84
2023-04-24T07:16:35.197Z,98457.41
2023-04-24T07:19:03.216Z,98460.22
2023-04-24T07:21:32.651Z,98458.84
2023-04-24T07:24:01.716Z,98458.47
2023-04-24T07:26:36.031Z,98458.59
2023-04-24T07:29:03.395Z,98468.44
2023-04-24T07:31:31.465Z,98458.19
2023-04-24T07:33:59.890Z,98465.31
2023-04-24T07:36:27.393Z,98456.59
2023-04-24T07:38:55.836Z,98458.53
2023-04-24T07:41:24.969Z,98461.03
2023-04-24T07:43:53.906Z,98465.03
2023-04-24T07:46:21.696Z,98462.19
2023-04-24T07:48:55.812Z,98462.97
2023-04-24T07:51:29.588Z,98457.47
2023-04-24T07:53:56.957Z,98462.22
2023-04-24T07:56:25.351Z,98460.41
2023-04-24T07:58:53.818Z,98461.25
2023-04-24T08:01:22.353Z,98458.97
2023-04-24T08:03:52.931Z,98451.94
2023-04-24T08:06:20.706Z,98460.41
2023-04-24T08:08:48.262Z,98464.13
2023-04-24T08:11:15.781Z,98459.31
2023-04-24T08:13:43.274Z,98462.66
2023-04-24T08:16:10.951Z,98459.56
2023-04-24T08:18:38.265Z,98460.63
2023-04-24T08:21:06.722Z,98460.53
2023-04-24T08:23:35.136Z,98464.72
2023-04-24T08:26:04.739Z,98459.44
2023-04-24T08:28:33.060Z,98465.41
2023-04-24T08:43:56.470Z,98466.59
2023-04-24T08:46:24.245Z,98462.38
2023-04-24T08:48:52.787Z,98464.66
2023-04-24T08:51:21.799Z,98457.78
2023-04-24T08:53:50.800Z,98465.13
2023-04-24T08:56:18.565Z,98466.16
2023-04-24T08:58:46.825Z,98471.94
2023-04-24T09:01:15.438Z,98462.09
2023-04-24T09:03:44.508Z,98472.59
2023-04-24T09:06:13.218Z,98459.78
2023-04-24T09:08:42.473Z,98459.78
2023-04-24T09:11:11.826Z,98466.00
2023-04-24T09:13:41.848Z,98465.50
2023-04-24T09:16:16.900Z,98479.31
2023-04-24T09:18:46.242Z,98468.34
2023-04-24T09:21:13.844Z,98470.47
2023-04-24T09:23:42.630Z,98479.28
2023-04-24T09:26:11.851Z,98470.00
2023-04-24T09:28:41.110Z,98465.88
2023-04-24T09:31:11.639Z,98464.75
2023-04-24T09:33:38.899Z,98460.66
2023-04-24T09:36:07.757Z,98467.84
2023-04-24T09:38:36.911Z,98455.84
2023-04-24T09:41:08.551Z,98461.03
2023-04-24T09:43:36.902Z,98458.91
2023-04-24T09:46:11.123Z,98452.59
2023-04-24T09:48:39.117Z,98446.25
2023-04-24T09:51:13.654Z,98453.72
2023-04-24T09:53:41.501Z,98451.28
2023-04-24T09:56:14.287Z,98448.28
2023-04-24T09:58:47.958Z,98448.72
2023-04-24T10:01:15.112Z,98450.66
2023-04-24T10:03:46.044Z,98455.91
2023-04-24T10:06:14.489Z,98458.72
2023-04-24T10:08:47.731Z,98466.78
2023-04-24T10:11:15.953Z,98453.72
2023-04-24T10:13:43.677Z,98451.34
2023-04-24T10:16:12.128Z,98454.59
2023-04-24T10:18:41.065Z,98456.09
2023-04-24T10:21:08.848Z,98460.34
2023-04-24T10:23:37.793Z,98463.16
2023-04-24T10:26:05.017Z,98470.94
2023-04-24T10:28:34.690Z,98470.09
2023-04-24T10:31:03.113Z,98470.59
2023-04-24T10:33:31.999Z,98474.09
2023-04-24T10:36:00.146Z,98477.50
2023-04-24T10:38:31.020Z,98469.75
2023-04-24T10:41:17.672Z,98471.81
2023-04-24T10:43:49.846Z,98474.97
2023-04-24T10:46:22.986Z,98474.84
2023-04-24T10:48:56.768Z,98484.78
2023-04-24T10:51:25.447Z,98481.50
2023-04-24T10:53:54.565Z,98477.03
2023-04-24T10:56:24.154Z,98476.03
2023-04-24T10:58:53.659Z,98477.59
2023-04-24T11:01:28.297Z,98476.34
2023-04-24T11:04:04.517Z,98470.69
2023-04-24T11:06:38.163Z,98477.88
2023-04-24T11:09:10.472Z,98468.06
2023-04-24T11:11:38.985Z,98478.22
2023-04-24T11:14:09.613Z,98480.28
2023-04-24T11:16:45.836Z,98468.22
2023-04-24T11:19:20.296Z,98471.03
2023-04-24T11:21:50.385Z,98462.88
2023-04-24T11:24:38.531Z,98463.84
2023-04-24T11:27:05.738Z,98474.34
2023-04-24T11:30:06.233Z,98463.72
2023-04-24T11:32:44.898Z,98469.97
2023-04-24T11:35:16.385Z,98453.41
2023-04-24T11:40:27.017Z,98462.00
2023-04-24T11:42:58.043Z,98460.34
2023-04-24T11:45:27.367Z,98449.09
2023-04-24T11:47:55.961Z,98455.88
2023-04-24T11:50:27.085Z,98455.03
2023-04-24T11:52:54.344Z,98449.94
2023-04-24T11:55:21.596Z,98449.66
2023-04-24T11:57:57.827Z,98446.91
2023-04-24T12:00:35.556Z,98440.69
2023-04-24T12:03:14.054Z,98440.47
2023-04-24T12:05:42.287Z,98433.44
2023-04-24T12:08:09.682Z,98431.34
2023-04-24T12:10:37.346Z,98434.56
2023-04-24T12:13:04.877Z,98437.88
2023-04-24T12:15:32.260Z,98440.41
2023-04-24T12:18:01.703Z,98429.22
2023-04-24T12:20:34.371Z,98433.97
2023-04-24T12:23:05.022Z,98430.22
2023-04-24T12:25:34.605Z,98438.97
2023-04-24T12:28:08.091Z,98424.41
2023-04-24T12:30:43.417Z,98430.22
2023-04-24T12:33:11.777Z,98432.13
2023-04-24T12:35:42.392Z,98428.34
2023-04-24T12:38:17.571Z,98431.03
2023-04-24T12:40:45.676Z,98430.69
2023-04-24T12:43:17.174Z,98427.53
2023-04-24T12:45:46.276Z,98430.94
2023-04-24T12:48:15.560Z,98424.75
2023-04-24T12:50:46.083Z,98430.31
2023-04-24T12:53:14.721Z,98436.25
2023-04-24T12:55:42.227Z,98429.38
2023-04-24T12:58:09.755Z,98435.66
2023-04-24T13:00:38.774Z,98441.84
2023-04-24T13:03:06.557Z,98444.22
2023-04-24T13:05:34.143Z,98433.69
2023-04-24T13:08:01.664Z,98429.59
2023-04-24T13:10:30.138Z,98432.56
2023-04-24T13:13:05.885Z,98428.00
2023-04-24T13:15:34.199Z,98428.75
2023-04-24T13:18:01.809Z,98419.53
2023-04-24T13:20:36.823Z,98423.66
2023-04-24T13:23:04.649Z,98425.88
2023-04-24T13:25:37.473Z,98427.44
2023-04-24T13:28:04.721Z,98430.13
2023-04-24T13:30:33.329Z,98425.88
2023-04-24T13:33:02.843Z,98428.50
2023-04-24T13:35:30.193Z,98432.56
2023-04-24T13:37:59.567Z,98427.97
2023-04-24T13:40:27.392Z,98426.50
2023-04-24T13:42:54.655Z,98426.22
2023-04-24T13:45:25.255Z,98420.09
2023-04-24T13:47:55.139Z,98422.34
2023-04-24T13:50:28.911Z,98415.28
2023-04-24T13:53:02.973Z,98416.25
2023-04-24T13:55:31.066Z,98409.16
2023-04-24T13:58:00.521Z,98416.31
2023-04-24T14:00:30.028Z,98408.34
2023-04-24T14:02:59.602Z,98410.28
2023-04-24T14:05:26.834Z,98409.47
2023-04-24T14:07:54.247Z,98408.72
2023-04-24T14:10:21.905Z,98409.69
2023-04-24T14:12:50.394Z,98411.81
2023-04-24T14:15:23.931Z,98415.66
2023-04-24T14:17:53.390Z,98407.59
2023-04-24T14:20:22.168Z,98400.16
2023-04-24T14:22:49.755Z,98401.41
2023-04-24T14:25:18.266Z,98403.72
2023-04-24T14:27:45.802Z,98401.19
2023-04-24T14:30:14.062Z,98395.91
2023-04-24T14:32:41.329Z,98398.88
2023-04-24T14:35:09.149Z,98409.03
2023-04-24T14:37:37.556Z,98408.81
2023-04-24T14:42:39.120Z,98404.75
2023-04-24T14:45:09.399Z,98400.31
2023-04-24T14:47:39.264Z,98394.34
2023-04-24T14:50:09.605Z,98388.59
2023-04-24T14:52:37.239Z,98403.19
2023-04-24T14:55:04.989Z,98401.66
2023-04-24T14:57:32.274Z,98397.97
2023-04-24T14:59:59.715Z,98400.69
2023-04-24T15:02:27.335Z,98400.31
2023-04-24T15:04:55.217Z,98402.03
2023-04-24T15:07:24.610Z,98410.31
2023-04-24T15:09:52.172Z,98405.94
2023-04-24T15:12:19.520Z,98395.25
2023-04-24T15:14:47.237Z,98397.59
2023-04-24T15:17:14.456Z,98404.38
2023-04-24T15:19:41.874Z,98407.34
2023-04-24T15:22:09.572Z,98396.09
2023-04-24T15:24:41.806Z,98394.81
2023-04-24T15:27:12.447Z,98396.41
2023-04-24T15:29:39.984Z,98387.94
2023-04-24T15:32:09.955Z,98395.47
2023-04-24T15:34:38.160Z,98393.78
2023-04-24T15:37:11.503Z,98390.47
2023-04-24T15:39:38.857Z,98390.81
2023-04-24T15:42:06.078Z,98397.06
2023-04-24T15:44:39.468Z,98388.66
2023-04-24T15:47:06.949Z,98388.25
2023-04-24T15:49:34.445Z,98391.44
2023-04-24T15:52:02.947Z,98377.22
2023-04-24T15:54:30.252Z,98393.00
2023-04-24T15:56:58.306Z,98397.16
2023-04-24T15:59:27.240Z,98394.16
2023-04-24T16:01:57.001Z,98403.72
2023-04-24T16:04:25.848Z,98396.63
2023-04-24T16:06:54.615Z,98403.09
2023-04-24T16:09:22.214Z,98395.88
2023-04-24T16:11:49.956Z,98401.06
2023-04-24T16:14:17.284Z,98406.50
2023-04-24T16:16:46.678Z,98404.47
2023-04-24T16:19:14.228Z,98402.38
2023-04-24T16:21:42.764Z,98407.53
2023-04-24T16:24:09.972Z,98407.13
2023-04-24T16:26:38.747Z,98404.88
2023-04-24T16:29:07.461Z,98406.25
2023-04-24T16:31:37.335Z,98411.81
2023-04-24T16:34:05.298Z,98406.63
2023-04-24T16:36:33.182Z,98420.06
2023-04-24T16:39:01.795Z,98419.50
2023-04-24T16:41:29.298Z,98419.19
2023-04-24T16:43:57.134Z,98421.72
2023-04-24T16:46:24.398Z,98414.91
2023-04-24T16:48:52.102Z,98423.34
2023-04-24T16:51:20.127Z,98415.94
2023-04-24T16:53:47.801Z,98417.19
2023-04-24T16:56:16.575Z,98419.09
2023-04-24T16:58:46.067Z,98416.44
2023-04-24T17:01:13.640Z,98422.94
2023-04-24T17:03:41.906Z,98413.16
2023-04-24T17:06:12.190Z,98421.13
2023-04-24T17:08:41.134Z,98426.09
2023-04-24T17:11:09.051Z,98428.41
2023-04-24T17:13:38.238Z,98426.28
2023-04-24T17:16:07.112Z,98430.53
2023-04-24T17:18:35.180Z,98439.44
2023-04-24T17:21:02.649Z,98440.91
2023-04-24T17:23:36.295Z,98436.03
2023-04-24T17:26:03.807Z,98428.84
2023-04-24T17:28:33.422Z,98434.03
2023-04-24T17:31:01.630Z,98446.59
2023-04-24T17:33:31.297Z,98443.56
2023-04-24T17:36:04.727Z,98449.13
2023-04-24T17:38:41.224Z,98450.53
2023-04-24T17:41:11.178Z,98446.19
2023-04-24T17:43:38.831Z,98449.19
2023-04-24T17:46:08.779Z,98455.72
2023-04-24T17:48:37.047Z,98452.69
2023-04-24T17:51:05.450Z,98458.72
2023-04-24T17:53:33.087Z,98465.25
2023-04-24T17:56:04.211Z,98461.28
2023-04-24T17:58:35.286Z,98457.69
2023-04-24T18:01:03.282Z,98460.84
2023-04-24T18:03:31.740Z,98465.09
2023-04-24T18:06:00.010Z,98473.13
2023-04-24T18:08:28.907Z,98471.53
2023-04-24T18:10:57.221Z,98476.00
2023-04-24T18:13:27.474Z,98478.84
2023-04-24T18:15:56.360Z,98483.28
2023-04-24T18:18:24.295Z,98482.34
2023-04-24T18:20:52.005Z,98480.84
2023-04-24T18:23:21.389Z,98480.38
2023-04-24T18:25:49.437Z,98479.50
2023-04-24T18:28:24.063Z,98476.69
2023-04-24T18:30:53.021Z,98487.41
2023-04-24T18:33:20.743Z,98485.38
2023-04-24T18:35:49.867Z,98489.22
2023-04-24T18:38:17.982Z,98490.22
2023-04-24T18:40:46.708Z,98499.38
2023-04-24T18:43:16.000Z,98497.81
2023-04-24T18:45:43.711Z,98515.09
2023-04-24T18:48:11.431Z,98509.84
2023-04-24T18:50:42.217Z,98511.94
2023-04-24T18:53:10.660Z,98504.38
2023-04-24T18:55:38.966Z,98516.75
2023-04-24T18:58:08.204Z,98518.56
2023-04-24T19:00:38.937Z,98506.84
2023-04-24T19:03:09.445Z,98514.78
2023-04-24T19:05:37.870Z,98520.59
2023-04-24T19:08:07.213Z,98517.78
2023-04-24T19:10:36.539Z,98515.88
2023-04-24T19:13:04.129Z,98517.97
2023-04-24T19:15:34.679Z,98528.03
2023-04-24T19:18:02.938Z,98527.47
2023-04-24T19:20:31.036Z,98521.91
2023-04-24T19:22:59.338Z,98524.81
2023-04-24T19:25:28.908Z,98518.88
2023-04-24T19:27:58.509Z,98520.84
2023-04-24T19:30:27.877Z,98531.34
2023-04-24T19:32:56.522Z,98531.13
2023-04-24T19:35:24.765Z,98527.38
2023-04-24T19:37:53.758Z,98530.84
2023-04-24T19:40:21.367Z,98528.50
2023-04-24T19:42:49.316Z,98534.16
2023-04-24T19:45:17.574Z,98539.59
2023-04-24T19:47:53.104Z,98547.44
2023-04-24T19:50:21.237Z,98538.38
2023-04-24T19:52:50.231Z,98535.16
2023-04-24T19:55:18.536Z,98539.69
2023-04-24T19:57:46.660Z,98543.44
2023-04-24T20:00:14.772Z,98541.00
2023-04-24T20:02:44.809Z,98542.16
2023-04-24T20:05:13.959Z,98539.53
2023-04-24T20:07:41.770Z,98545.28
2023-04-24T20:10:10.401Z,98543.66
2023-04-24T20:12:40.559Z,98544.97
2023-04-24T20:15:09.432Z,98547.28
2023-04-24T20:17:39.169Z,98551.06
2023-04-24T20:20:08.704Z,98556.09
2023-04-24T20:22:41.176Z,98549.28
2023-04-24T20:25:10.313Z,98545.47
2023-04-24T20:27:41.304Z,98551.78
2023-04-24T20:30:17.054Z,98557.91
2023-04-24T20:32:45.043Z,98562.34
2023-04-24T20:35:15.398Z,98563.41
2023-04-24T20:37:43.207Z,98562.19
2023-04-24T20:40:11.296Z,98564.38
2023-04-24T20:42:38.688Z,98561.34
2023-04-24T20:45:07.150Z,98565.16
2023-04-24T20:47:35.164Z,98557.06
2023-04-24T20:50:04.343Z,98555.91
2023-04-24T20:52:33.207Z,98557.63
2023-04-24T20:55:00.896Z,98563.09
2023-04-24T20:57:28.138Z,98554.66
2023-04-24T20:59:55.653Z,98547.00
2023-04-24T21:02:23.100Z,98548.19
2023-04-24T21:04:57.651Z,98548.06
2023-04-24T21:07:25.197Z,98540.75
2023-04-24T21:09:53.625Z,98548.13
2023-04-24T21:12:22.069Z,98542.41
2023-04-24T21:14:51.475Z,98540.63
2023-04-24T21:17:19.594Z,98541.94
2023-04-24T21:19:49.092Z,98535.34
2023-04-24T21:22:16.579Z,98535.34
2023-04-24T21:24:47.408Z,98532.94
2023-04-24T21:27:14.596Z,98535.91
2023-04-24T21:29:42.759Z,98541.75
2023-04-24T21:32:10.181Z,98541.09
2023-04-24T21:34:38.626Z,98540.06
2023-04-24T21:37:15.683Z,98538.56
2023-04-24T21:39:43.225Z,98538.28
2023-04-24T21:42:10.401Z,98538.50
2023-04-24T21:44:37.599Z,98538.09
2023-04-24T21:47:05.198Z,98550.63
2023-04-24T21:49:32.508Z,98536.63
2023-04-24T21:52:00.012Z,98542.00
2023-04-24T21:54:33.581Z,98537.50
2023-04-24T21:57:02.586Z,98541.47
2023-04-24T21:59:30.402Z,98547.38
2023-04-24T22:01:58.381Z,98551.16
2023-04-24T22:04:26.985Z,98552.50
2023-04-24T22:06:54.686Z,98545.88
2023-04-24T22:09:22.098Z,98545.22
2023-04-24T22:11:49.386Z,98555.09
2023-04-24T22:14:17.390Z,98555.03
2023-04-24T22:16:46.429Z,98555.03
2023-04-24T22:19:14.887Z,98550.84
2023-04-24T22:21:42.890Z,98546.69
2023-04-24T22:24:10.476Z,98540.63
2023-04-24T22:26:40.107Z,98548.06
2023-04-24T22:29:08.371Z,98549.47
2023-04-24T22:31:36.356Z,98545.47
2023-04-24T22:34:03.864Z,98555.34
2023-04-24T22:36:34.287Z,98550.69
2023-04-24T22:39:02.124Z,98551.81
2023-04-24T22:41:32.105Z,98556.66
2023-04-24T22:43:59.488Z,98550.84
2023-04-24T22:46:26.800Z,98560.56
2023-04-24T22:48:54.483Z,98562.44
2023-04-24T22:51:21.578Z,98569.91
2023-04-24T22:53:51.377Z,98558.25
2023-04-24T22:56:19.115Z,98566.38
2023-04-24T22:58:48.636Z,98573.50
2023-04-24T23:01:18.088Z,98575.81
2023-04-24T23:03:45.585Z,98580.59
2023-04-24T23:06:19.238Z,98582.53
2023-04-24T23:08:47.035Z,98578.28
2023-04-24T23:11:14.585Z,98573.19
2023-04-24T23:13:43.682Z,98580.06
2023-04-24T23:16:11.156Z,98578.63
2023-04-24T23:18:38.609Z,98579.22
2023-04-24T23:21:06.105Z,98567.72
2023-04-24T23:23:33.548Z,98583.66
2023-04-24T23:26:01.172Z,98572.06
2023-04-24T23:28:30.641Z,98569.75
2023-04-24T23:30:57.857Z,98565.88
2023-04-24T23:33:25.417Z,98583.63
2023-04-24T23:35:53.853Z,98577.22
2023-04-24T23:38:21.309Z,98577.56
2023-04-24T23:40:50.849Z,98584.91
2023-04-24T23:43:18.546Z,98583.06
2023-04-24T23:45:45.907Z,98596.31
2023-04-24T23:48:13.236Z,98596.44
2023-04-24T23:50:40.896Z,98608.53
2023-04-24T23:53:08.179Z,98599.81
2023-04-24T23:55:41.707Z,98598.66
2023-04-24T23:58:09.674Z,98601.97
